sensor_id;sensor_type;location;lat;lon;timestamp;pressure;altitude;pressure_sealevel;temperature;humidity
19831;BME280;10076;52.008;4.708;2023-02-04T00:00:21;103399.25;;;10.56;100.00
19831;BME280;10076;52.008;4.708;2023-02-04T00:02:47;103397.63;;;10.52;100.00
19831;BME280;10076;52.008;4.708;2023-02-04T00:05:13;103389.13;;;10.70;100.00
19831;BME280;10076;52.008;4.708;2023-02-04T00:07:38;103386.94;;;10.55;100.00
19831;BME280;10076;52.008;4.708;2023-02-04T00:10:05;103387.78;;;10.57;100.00
19831;BME280;10076;52.008;4.708;2023-02-04T00:12:30;103380.63;;;10.60;100.00
19831;BME280;10076;52.008;4.708;2023-02-04T00:14:56;103380.13;;;10.48;100.00
19831;BME280;10076;52.008;4.708;2023-02-04T00:17:21;103384.28;;;10.55;100.00
19831;BME280;10076;52.008;4.708;2023-02-04T00:19:47;103386.16;;;10.51;100.00
19831;BME280;10076;52.008;4.708;2023-02-04T00:22:12;103391.69;;;10.44;100.00
19831;BME280;10076;52.008;4.708;2023-02-04T00:24:37;103382.44;;;10.30;100.00
19831;BME280;10076;52.008;4.708;2023-02-04T00:27:04;103386.34;;;10.17;100.00
19831;BME280;10076;52.008;4.708;2023-02-04T00:29:30;103392.44;;;10.19;100.00
19831;BME280;10076;52.008;4.708;2023-02-04T00:31:56;103385.75;;;10.06;100.00
19831;BME280;10076;52.008;4.708;2023-02-04T00:34:22;103390.44;;;9.95;100.00
19831;BME280;10076;52.008;4.708;2023-02-04T00:36:47;103398.09;;;10.05;100.00
19831;BME280;10076;52.008;4.708;2023-02-04T00:39:13;103385.56;;;10.13;100.00
19831;BME280;10076;52.008;4.708;2023-02-04T00:41:38;103397.16;;;10.08;100.00
19831;BME280;10076;52.008;4.708;2023-02-04T00:44:03;103394.81;;;9.96;100.00
19831;BME280;10076;52.008;4.708;2023-02-04T00:46:29;103405.34;;;9.99;100.00
19831;BME280;10076;52.008;4.708;2023-02-04T00:48:54;103405.34;;;9.97;100.00
19831;BME280;10076;52.008;4.708;2023-02-04T00:51:19;103403.94;;;9.84;100.00
19831;BME280;10076;52.008;4.708;2023-02-04T00:53:45;103411.81;;;9.86;100.00
19831;BME280;10076;52.008;4.708;2023-02-04T00:56:10;103410.19;;;9.82;100.00
19831;BME280;10076;52.008;4.708;2023-02-04T00:58:36;103411.88;;;9.84;100.00
19831;BME280;10076;52.008;4.708;2023-02-04T01:01:01;103408.50;;;9.78;100.00
19831;BME280;10076;52.008;4.708;2023-02-04T01:03:26;103402.91;;;9.90;100.00
19831;BME280;10076;52.008;4.708;2023-02-04T01:05:52;103412.56;;;9.91;100.00
19831;BME280;10076;52.008;4.708;2023-02-04T01:08:17;103418.69;;;9.93;100.00
19831;BME280;10076;52.008;4.708;2023-02-04T01:10:42;103410.53;;;10.02;100.00
19831;BME280;10076;52.008;4.708;2023-02-04T01:13:11;103413.16;;;10.02;100.00
19831;BME280;10076;52.008;4.708;2023-02-04T01:15:36;103415.09;;;9.94;100.00
19831;BME280;10076;52.008;4.708;2023-02-04T01:18:02;103416.06;;;9.91;100.00
19831;BME280;10076;52.008;4.708;2023-02-04T01:20:27;103421.13;;;10.00;100.00
19831;BME280;10076;52.008;4.708;2023-02-04T01:22:53;103433.16;;;10.10;100.00
19831;BME280;10076;52.008;4.708;2023-02-04T01:25:18;103427.44;;;9.93;100.00
19831;BME280;10076;52.008;4.708;2023-02-04T01:27:44;103437.78;;;10.02;100.00
19831;BME280;10076;52.008;4.708;2023-02-04T01:30:11;103429.09;;;9.99;100.00
19831;BME280;10076;52.008;4.708;2023-02-04T01:32:37;103433.00;;;10.16;100.00
19831;BME280;10076;52.008;4.708;2023-02-04T01:35:03;103440.91;;;10.16;100.00
19831;BME280;10076;52.008;4.708;2023-02-04T01:37:28;103443.00;;;10.35;100.00
19831;BME280;10076;52.008;4.708;2023-02-04T01:39:54;103447.03;;;10.18;100.00
19831;BME280;10076;52.008;4.708;2023-02-04T01:42:19;103442.72;;;10.16;100.00
19831;BME280;10076;52.008;4.708;2023-02-04T01:44:45;103453.09;;;10.22;100.00
19831;BME280;10076;52.008;4.708;2023-02-04T01:47:10;103451.25;;;10.24;100.00
19831;BME280;10076;52.008;4.708;2023-02-04T01:49:36;103457.94;;;10.36;100.00
19831;BME280;10076;52.008;4.708;2023-02-04T01:52:02;103462.56;;;10.29;100.00
19831;BME280;10076;52.008;4.708;2023-02-04T01:54:28;103455.97;;;10.43;100.00
19831;BME280;10076;52.008;4.708;2023-02-04T01:56:54;103454.66;;;10.57;100.00
19831;BME280;10076;52.008;4.708;2023-02-04T01:59:21;103456.59;;;10.52;100.00
19831;BME280;10076;52.008;4.708;2023-02-04T02:01:49;103458.88;;;10.64;100.00
19831;BME280;10076;52.008;4.708;2023-02-04T02:04:31;103459.09;;;10.57;100.00
19831;BME280;10076;52.008;4.708;2023-02-04T02:06:59;103464.91;;;10.39;100.00
19831;BME280;10076;52.008;4.708;2023-02-04T02:09:28;103472.47;;;10.21;100.00
19831;BME280;10076;52.008;4.708;2023-02-04T02:11:54;103477.38;;;10.34;100.00
19831;BME280;10076;52.008;4.708;2023-02-04T02:14:20;103469.91;;;10.49;100.00
19831;BME280;10076;52.008;4.708;2023-02-04T02:16:46;103473.84;;;10.35;100.00
19831;BME280;10076;52.008;4.708;2023-02-04T02:19:15;103474.91;;;10.28;100.00
19831;BME280;10076;52.008;4.708;2023-02-04T02:21:50;103482.78;;;10.30;100.00
19831;BME280;10076;52.008;4.708;2023-02-04T02:24:28;103474.63;;;10.37;100.00
19831;BME280;10076;52.008;4.708;2023-02-04T02:26:55;103476.09;;;10.48;100.00
19831;BME280;10076;52.008;4.708;2023-02-04T02:29:22;103475.91;;;10.54;100.00
19831;BME280;10076;52.008;4.708;2023-02-04T02:31:49;103475.75;;;10.60;100.00
19831;BME280;10076;52.008;4.708;2023-02-04T02:34:15;103472.69;;;10.74;100.00
19831;BME280;10076;52.008;4.708;2023-02-04T02:36:40;103476.34;;;10.70;100.00
19831;BME280;10076;52.008;4.708;2023-02-04T02:39:06;103481.56;;;10.71;100.00
19831;BME280;10076;52.008;4.708;2023-02-04T02:41:32;103480.91;;;10.65;100.00
19831;BME280;10076;52.008;4.708;2023-02-04T02:43:58;103479.16;;;10.64;100.00
19831;BME280;10076;52.008;4.708;2023-02-04T02:46:23;103483.53;;;10.65;100.00
19831;BME280;10076;52.008;4.708;2023-02-04T02:48:48;103479.09;;;10.65;100.00
19831;BME280;10076;52.008;4.708;2023-02-04T02:51:14;103481.75;;;10.65;100.00
19831;BME280;10076;52.008;4.708;2023-02-04T02:53:39;103480.84;;;10.66;100.00
19831;BME280;10076;52.008;4.708;2023-02-04T02:56:04;103488.78;;;10.66;100.00
19831;BME280;10076;52.008;4.708;2023-02-04T02:58:33;103485.06;;;10.72;100.00
19831;BME280;10076;52.008;4.708;2023-02-04T03:01:01;103487.50;;;10.79;100.00
19831;BME280;10076;52.008;4.708;2023-02-04T03:03:37;103482.22;;;10.79;100.00
19831;BME280;10076;52.008;4.708;2023-02-04T03:06:07;103491.13;;;10.75;100.00
19831;BME280;10076;52.008;4.708;2023-02-04T03:08:35;103495.69;;;10.70;100.00
19831;BME280;10076;52.008;4.708;2023-02-04T03:11:01;103483.50;;;10.66;100.00
19831;BME280;10076;52.008;4.708;2023-02-04T03:13:27;103482.47;;;10.70;100.00
19831;BME280;10076;52.008;4.708;2023-02-04T03:15:52;103483.50;;;10.66;100.00
19831;BME280;10076;52.008;4.708;2023-02-04T03:18:19;103484.44;;;10.64;100.00
19831;BME280;10076;52.008;4.708;2023-02-04T03:20:46;103488.81;;;10.65;100.00
19831;BME280;10076;52.008;4.708;2023-02-04T03:23:12;103488.16;;;10.57;100.00
19831;BME280;10076;52.008;4.708;2023-02-04T03:25:37;103485.34;;;10.63;100.00
19831;BME280;10076;52.008;4.708;2023-02-04T03:28:03;103481.94;;;10.59;100.00
19831;BME280;10076;52.008;4.708;2023-02-04T03:30:30;103492.16;;;10.71;100.00
19831;BME280;10076;52.008;4.708;2023-02-04T03:32:55;103488.09;;;10.60;100.00
19831;BME280;10076;52.008;4.708;2023-02-04T03:35:21;103493.75;;;10.46;100.00
19831;BME280;10076;52.008;4.708;2023-02-04T03:37:46;103484.63;;;10.58;100.00
19831;BME280;10076;52.008;4.708;2023-02-04T03:40:11;103481.97;;;10.58;100.00
19831;BME280;10076;52.008;4.708;2023-02-04T03:42:37;103482.66;;;10.64;100.00
19831;BME280;10076;52.008;4.708;2023-02-04T03:45:03;103492.72;;;10.52;100.00
19831;BME280;10076;52.008;4.708;2023-02-04T03:47:28;103488.22;;;10.55;100.00
19831;BME280;10076;52.008;4.708;2023-02-04T03:49:54;103492.84;;;10.47;100.00
19831;BME280;10076;52.008;4.708;2023-02-04T03:52:19;103477.16;;;10.41;100.00
19831;BME280;10076;52.008;4.708;2023-02-04T03:54:45;103483.84;;;10.54;100.00
19831;BME280;10076;52.008;4.708;2023-02-04T03:57:10;103492.84;;;10.47;100.00
19831;BME280;10076;52.008;4.708;2023-02-04T03:59:36;103491.16;;;10.45;100.00
19831;BME280;10076;52.008;4.708;2023-02-04T04:02:01;103496.25;;;10.51;100.00
19831;BME280;10076;52.008;4.708;2023-02-04T04:04:27;103499.41;;;10.33;100.00
19831;BME280;10076;52.008;4.708;2023-02-04T04:06:52;103503.50;;;10.44;100.00
19831;BME280;10076;52.008;4.708;2023-02-04T04:09:17;103509.53;;;10.49;100.00
19831;BME280;10076;52.008;4.708;2023-02-04T04:11:43;103496.53;;;10.42;100.00
19831;BME280;10076;52.008;4.708;2023-02-04T04:14:08;103508.00;;;10.41;100.00
19831;BME280;10076;52.008;4.708;2023-02-04T04:16:33;103506.78;;;10.52;100.00
19831;BME280;10076;52.008;4.708;2023-02-04T04:18:59;103508.69;;;10.47;100.00
19831;BME280;10076;52.008;4.708;2023-02-04T04:21:24;103509.53;;;10.49;100.00
19831;BME280;10076;52.008;4.708;2023-02-04T04:23:49;103501.50;;;10.52;100.00
19831;BME280;10076;52.008;4.708;2023-02-04T04:26:15;103502.66;;;10.42;100.00
19831;BME280;10076;52.008;4.708;2023-02-04T04:28:41;103506.06;;;10.47;100.00
19831;BME280;10076;52.008;4.708;2023-02-04T04:31:06;103506.34;;;10.37;100.00
19831;BME280;10076;52.008;4.708;2023-02-04T04:33:32;103506.47;;;10.32;100.00
19831;BME280;10076;52.008;4.708;2023-02-04T04:35:57;103508.06;;;10.38;100.00
19831;BME280;10076;52.008;4.708;2023-02-04T04:38:22;103507.75;;;10.18;100.00
19831;BME280;10076;52.008;4.708;2023-02-04T04:40:47;103514.56;;;10.27;100.00
19831;BME280;10076;52.008;4.708;2023-02-04T04:43:13;103510.88;;;10.33;100.00
19831;BME280;10076;52.008;4.708;2023-02-04T04:45:38;103523.53;;;10.53;100.00
19831;BME280;10076;52.008;4.708;2023-02-04T04:48:04;103527.47;;;10.69;100.00
19831;BME280;10076;52.008;4.708;2023-02-04T04:50:29;103527.94;;;10.83;100.00
19831;BME280;10076;52.008;4.708;2023-02-04T04:52:54;103526.63;;;10.67;100.00
19831;BME280;10076;52.008;4.708;2023-02-04T04:55:20;103530.88;;;10.42;100.00
19831;BME280;10076;52.008;4.708;2023-02-04T04:57:45;103533.38;;;10.46;100.00
19831;BME280;10076;52.008;4.708;2023-02-04T05:00:14;103533.47;;;10.43;100.00
19831;BME280;10076;52.008;4.708;2023-02-04T05:02:40;103544.56;;;10.56;100.00
19831;BME280;10076;52.008;4.708;2023-02-04T05:05:06;103531.13;;;10.63;100.00
19831;BME280;10076;52.008;4.708;2023-02-04T05:07:31;103536.00;;;10.48;100.00
19831;BME280;10076;52.008;4.708;2023-02-04T05:09:56;103536.84;;;10.48;100.00
19831;BME280;10076;52.008;4.708;2023-02-04T05:12:22;103534.91;;;10.23;100.00
19831;BME280;10076;52.008;4.708;2023-02-04T05:14:47;103544.56;;;10.24;100.00
19831;BME280;10076;52.008;4.708;2023-02-04T05:17:12;103540.88;;;10.31;100.00
19831;BME280;10076;52.008;4.708;2023-02-04T05:19:38;103548.91;;;10.27;100.00
19831;BME280;10076;52.008;4.708;2023-02-04T05:22:03;103544.47;;;10.27;100.00
19831;BME280;10076;52.008;4.708;2023-02-04T05:24:28;103545.19;;;10.33;100.00
19831;BME280;10076;52.008;4.708;2023-02-04T05:26:54;103551.72;;;10.21;100.00
19831;BME280;10076;52.008;4.708;2023-02-04T05:29:19;103549.13;;;10.19;100.00
19831;BME280;10076;52.008;4.708;2023-02-04T05:31:44;103548.06;;;10.25;100.00
19831;BME280;10076;52.008;4.708;2023-02-04T05:34:10;103555.34;;;10.17;100.00
19831;BME280;10076;52.008;4.708;2023-02-04T05:36:35;103551.53;;;10.27;100.00
19831;BME280;10076;52.008;4.708;2023-02-04T05:39:00;103553.19;;;10.31;100.00
19831;BME280;10076;52.008;4.708;2023-02-04T05:41:26;103566.13;;;10.08;100.00
19831;BME280;10076;52.008;4.708;2023-02-04T05:43:51;103564.47;;;10.02;100.00
19831;BME280;10076;52.008;4.708;2023-02-04T05:46:17;103569.84;;;9.99;100.00
19831;BME280;10076;52.008;4.708;2023-02-04T05:48:42;103576.53;;;10.14;100.00
19831;BME280;10076;52.008;4.708;2023-02-04T05:51:07;103569.34;;;10.19;100.00
19831;BME280;10076;52.008;4.708;2023-02-04T05:53:33;103568.25;;;10.27;100.00
19831;BME280;10076;52.008;4.708;2023-02-04T05:55:58;103571.78;;;10.28;100.00
19831;BME280;10076;52.008;4.708;2023-02-04T05:58:23;103565.50;;;10.32;100.00
19831;BME280;10076;52.008;4.708;2023-02-04T06:00:48;103572.56;;;10.31;100.00
19831;BME280;10076;52.008;4.708;2023-02-04T06:03:14;103572.41;;;10.35;100.00
19831;BME280;10076;52.008;4.708;2023-02-04T06:05:39;103581.34;;;10.32;100.00
19831;BME280;10076;52.008;4.708;2023-02-04T06:08:05;103578.69;;;10.32;100.00
19831;BME280;10076;52.008;4.708;2023-02-04T06:10:30;103591.75;;;10.37;100.00
19831;BME280;10076;52.008;4.708;2023-02-04T06:12:56;103579.75;;;10.25;100.00
19831;BME280;10076;52.008;4.708;2023-02-04T06:15:21;103579.53;;;10.33;100.00
19831;BME280;10076;52.008;4.708;2023-02-04T06:17:46;103597.88;;;10.39;100.00
19831;BME280;10076;52.008;4.708;2023-02-04T06:20:13;103598.50;;;10.47;100.00
19831;BME280;10076;52.008;4.708;2023-02-04T06:22:39;103598.19;;;10.59;100.00
19831;BME280;10076;52.008;4.708;2023-02-04T06:25:05;103596.53;;;10.55;100.00
19831;BME280;10076;52.008;4.708;2023-02-04T06:27:30;103599.41;;;10.48;100.00
19831;BME280;10076;52.008;4.708;2023-02-04T06:29:55;103604.63;;;10.49;100.00
19831;BME280;10076;52.008;4.708;2023-02-04T06:32:21;103603.16;;;10.38;100.00
19831;BME280;10076;52.008;4.708;2023-02-04T06:34:48;103603.47;;;10.26;100.00
19831;BME280;10076;52.008;4.708;2023-02-04T06:37:13;103609.66;;;10.27;100.00
19831;BME280;10076;52.008;4.708;2023-02-04T06:39:41;103609.06;;;10.16;100.00
19831;BME280;10076;52.008;4.708;2023-02-04T06:42:06;103609.06;;;10.14;100.00
19831;BME280;10076;52.008;4.708;2023-02-04T06:44:32;103617.13;;;10.10;100.00
19831;BME280;10076;52.008;4.708;2023-02-04T06:46:57;103613.44;;;10.15;100.00
19831;BME280;10076;52.008;4.708;2023-02-04T06:49:22;103625.41;;;10.30;100.00
19831;BME280;10076;52.008;4.708;2023-02-04T06:51:51;103622.66;;;10.34;100.00
19831;BME280;10076;52.008;4.708;2023-02-04T06:54:16;103620.69;;;10.42;100.00
19831;BME280;10076;52.008;4.708;2023-02-04T06:56:42;103623.59;;;10.32;100.00
19831;BME280;10076;52.008;4.708;2023-02-04T06:59:11;103624.25;;;10.41;100.00
19831;BME280;10076;52.008;4.708;2023-02-04T07:01:36;103623.72;;;10.60;100.00
19831;BME280;10076;52.008;4.708;2023-02-04T07:04:01;103628.56;;;10.43;100.00
19831;BME280;10076;52.008;4.708;2023-02-04T07:06:27;103624.44;;;10.33;100.00
19831;BME280;10076;52.008;4.708;2023-02-04T07:08:52;103634.16;;;10.32;100.00
19831;BME280;10076;52.008;4.708;2023-02-04T07:11:17;103628.78;;;10.34;100.00
19831;BME280;10076;52.008;4.708;2023-02-04T07:13:43;103634.16;;;10.32;100.00
19831;BME280;10076;52.008;4.708;2023-02-04T07:16:08;103634.13;;;10.33;100.00
19831;BME280;10076;52.008;4.708;2023-02-04T07:18:33;103636.84;;;10.30;100.00
19831;BME280;10076;52.008;4.708;2023-02-04T07:20:59;103636.84;;;10.30;100.00
19831;BME280;10076;52.008;4.708;2023-02-04T07:23:24;103642.94;;;10.33;100.00
19831;BME280;10076;52.008;4.708;2023-02-04T07:25:52;103639.09;;;10.45;100.00
19831;BME280;10076;52.008;4.708;2023-02-04T07:28:18;103644.88;;;10.26;100.00
19831;BME280;10076;52.008;4.708;2023-02-04T07:30:44;103635.16;;;10.28;100.00
19831;BME280;10076;52.008;4.708;2023-02-04T07:33:09;103636.88;;;10.29;100.00
19831;BME280;10076;52.008;4.708;2023-02-04T07:35:34;103650.88;;;10.32;100.00
19831;BME280;10076;52.008;4.708;2023-02-04T07:38:02;103655.34;;;10.29;100.00
19831;BME280;10076;52.008;4.708;2023-02-04T07:40:27;103653.50;;;10.33;100.00
19831;BME280;10076;52.008;4.708;2023-02-04T07:42:52;103655.78;;;10.47;100.00
19831;BME280;10076;52.008;4.708;2023-02-04T07:45:18;103655.56;;;10.54;100.00
19831;BME280;10076;52.008;4.708;2023-02-04T07:47:43;103656.00;;;10.71;100.00
19831;BME280;10076;52.008;4.708;2023-02-04T07:50:08;103660.75;;;10.91;100.00
19831;BME280;10076;52.008;4.708;2023-02-04T07:52:34;103676.28;;;11.02;100.00
19831;BME280;10076;52.008;4.708;2023-02-04T07:54:59;103679.72;;;11.06;100.00
19831;BME280;10076;52.008;4.708;2023-02-04T07:57:24;103671.66;;;11.10;100.00
19831;BME280;10076;52.008;4.708;2023-02-04T07:59:50;103663.91;;;11.04;100.00
19831;BME280;10076;52.008;4.708;2023-02-04T08:02:15;103671.56;;;11.13;100.00
19831;BME280;10076;52.008;4.708;2023-02-04T08:04:41;103675.53;;;11.28;100.00
19831;BME280;10076;52.008;4.708;2023-02-04T08:07:06;103678.13;;;11.31;100.00
19831;BME280;10076;52.008;4.708;2023-02-04T08:09:32;103679.94;;;11.29;100.00
19831;BME280;10076;52.008;4.708;2023-02-04T08:12:00;103680.72;;;11.32;100.00
19831;BME280;10076;52.008;4.708;2023-02-04T08:14:27;103687.69;;;11.35;100.00
19831;BME280;10076;52.008;4.708;2023-02-04T08:16:53;103696.38;;;11.40;100.00
19831;BME280;10076;52.008;4.708;2023-02-04T08:19:18;103693.66;;;11.41;100.00
19831;BME280;10076;52.008;4.708;2023-02-04T08:21:46;103704.97;;;11.48;100.00
19831;BME280;10076;52.008;4.708;2023-02-04T08:24:12;103704.78;;;11.55;100.00
19831;BME280;10076;52.008;4.708;2023-02-04T08:26:39;103709.75;;;11.66;100.00
19831;BME280;10076;52.008;4.708;2023-02-04T08:29:04;103700.81;;;11.70;100.00
19831;BME280;10076;52.008;4.708;2023-02-04T08:31:29;103699.47;;;11.84;100.00
19831;BME280;10076;52.008;4.708;2023-02-04T08:33:55;103710.47;;;11.99;100.00
19831;BME280;10076;52.008;4.708;2023-02-04T08:36:20;103710.41;;;12.01;100.00
19831;BME280;10076;52.008;4.708;2023-02-04T08:38:45;103707.75;;;12.01;100.00
19831;BME280;10076;52.008;4.708;2023-02-04T08:41:11;103712.03;;;12.06;100.00
19831;BME280;10076;52.008;4.708;2023-02-04T08:43:36;103712.78;;;12.10;100.00
19831;BME280;10076;52.008;4.708;2023-02-04T08:46:01;103715.28;;;12.14;100.00
19831;BME280;10076;52.008;4.708;2023-02-04T08:48:27;103723.09;;;12.19;100.00
19831;BME280;10076;52.008;4.708;2023-02-04T08:50:52;103722.75;;;12.29;100.00
19831;BME280;10076;52.008;4.708;2023-02-04T08:53:17;103721.41;;;12.43;100.00
19831;BME280;10076;52.008;4.708;2023-02-04T08:55:43;103718.75;;;12.43;100.00
19831;BME280;10076;52.008;4.708;2023-02-04T08:58:08;103719.41;;;12.50;100.00
19831;BME280;10076;52.008;4.708;2023-02-04T09:00:34;103724.00;;;12.71;100.00
19831;BME280;10076;52.008;4.708;2023-02-04T09:02:59;103727.09;;;12.83;100.00
19831;BME280;10076;52.008;4.708;2023-02-04T09:05:24;103734.75;;;12.92;100.00
19831;BME280;10076;52.008;4.708;2023-02-04T09:07:50;103731.97;;;12.97;100.00
19831;BME280;10076;52.008;4.708;2023-02-04T09:10:15;103735.53;;;12.96;100.00
19831;BME280;10076;52.008;4.708;2023-02-04T09:12:40;103733.63;;;12.99;100.00
19831;BME280;10076;52.008;4.708;2023-02-04T09:15:09;103730.38;;;12.91;100.00
19831;BME280;10076;52.008;4.708;2023-02-04T09:17:34;103735.66;;;12.93;100.00
19831;BME280;10076;52.008;4.708;2023-02-04T09:20:00;103743.53;;;12.94;100.00
19831;BME280;10076;52.008;4.708;2023-02-04T09:22:25;103748.94;;;12.91;100.00
19831;BME280;10076;52.008;4.708;2023-02-04T09:24:50;103751.44;;;12.96;100.00
19831;BME280;10076;52.008;4.708;2023-02-04T09:27:16;103746.59;;;13.08;100.00
19831;BME280;10076;52.008;4.708;2023-02-04T09:29:41;103746.81;;;13.02;100.00
19831;BME280;10076;52.008;4.708;2023-02-04T09:32:06;103744.19;;;13.01;100.00
19831;BME280;10076;52.008;4.708;2023-02-04T09:34:32;103747.66;;;13.03;100.00
19831;BME280;10076;52.008;4.708;2023-02-04T09:36:57;103750.16;;;13.07;100.00
19831;BME280;10076;52.008;4.708;2023-02-04T09:39:22;103749.78;;;13.17;100.00
19831;BME280;10076;52.008;4.708;2023-02-04T09:41:49;103754.78;;;13.26;100.00
19831;BME280;10076;52.008;4.708;2023-02-04T09:44:18;103749.59;;;13.46;100.00
19831;BME280;10076;52.008;4.708;2023-02-04T09:46:48;103743.97;;;13.55;100.00
19831;BME280;10076;52.008;4.708;2023-02-04T09:49:14;103749.66;;;13.45;100.00
19831;BME280;10076;52.008;4.708;2023-02-04T09:51:40;103757.84;;;13.39;100.00
19831;BME280;10076;52.008;4.708;2023-02-04T09:54:10;103760.06;;;13.26;100.00
19831;BME280;10076;52.008;4.708;2023-02-04T09:56:36;103767.28;;;13.23;100.00
19831;BME280;10076;52.008;4.708;2023-02-04T09:59:05;103770.41;;;13.10;100.00
19831;BME280;10076;52.008;4.708;2023-02-04T10:01:30;103765.13;;;13.10;100.00
19831;BME280;10076;52.008;4.708;2023-02-04T10:03:59;103770.91;;;12.95;100.00
19831;BME280;10076;52.008;4.708;2023-02-04T10:06:25;103773.63;;;12.93;100.00
19831;BME280;10076;52.008;4.708;2023-02-04T10:08:51;103776.50;;;12.86;100.00
19831;BME280;10076;52.008;4.708;2023-02-04T10:11:18;103774.91;;;12.80;100.00
19831;BME280;10076;52.008;4.708;2023-02-04T10:13:50;103775.38;;;12.94;100.00
19831;BME280;10076;52.008;4.708;2023-02-04T10:16:23;103789.19;;;13.04;100.00
19831;BME280;10076;52.008;4.708;2023-02-04T10:18:59;103784.47;;;13.11;100.00
19831;BME280;10076;52.008;4.708;2023-02-04T10:21:34;103790.00;;;13.06;100.00
19831;BME280;10076;52.008;4.708;2023-02-04T10:24:10;103786.44;;;13.07;100.00
19831;BME280;10076;52.008;4.708;2023-02-04T10:26:37;103785.25;;;13.15;100.00
19831;BME280;10076;52.008;4.708;2023-02-04T10:29:11;103787.09;;;13.13;100.00
19831;BME280;10076;52.008;4.708;2023-02-04T10:31:39;103791.31;;;13.18;100.00
19831;BME280;10076;52.008;4.708;2023-02-04T10:34:17;103793.69;;;13.26;100.00
19831;BME280;10076;52.008;4.708;2023-02-04T10:36:46;103789.22;;;13.28;100.00
19831;BME280;10076;52.008;4.708;2023-02-04T10:39:20;103788.59;;;13.20;100.00
19831;BME280;10076;52.008;4.708;2023-02-04T10:41:48;103779.38;;;13.06;100.00
19831;BME280;10076;52.008;4.708;2023-02-04T10:44:15;103785.13;;;12.94;100.00
19831;BME280;10076;52.008;4.708;2023-02-04T10:46:41;103787.03;;;12.89;100.00
19831;BME280;10076;52.008;4.708;2023-02-04T10:49:21;103786.97;;;12.92;100.00
19831;BME280;10076;52.008;4.708;2023-02-04T10:51:48;103790.00;;;13.06;100.00
19831;BME280;10076;52.008;4.708;2023-02-04T10:54:14;103785.03;;;13.21;100.00
19831;BME280;10076;52.008;4.708;2023-02-04T10:59:51;103784.19;;;13.68;100.00
19831;BME280;10076;52.008;4.708;2023-02-04T11:02:25;103784.03;;;13.72;100.00
19831;BME280;10076;52.008;4.708;2023-02-04T11:04:53;103782.06;;;13.77;100.00
19831;BME280;10076;52.008;4.708;2023-02-04T11:07:20;103788.75;;;14.11;100.00
19831;BME280;10076;52.008;4.708;2023-02-04T11:09:46;103779.94;;;14.32;100.00
19831;BME280;10076;52.008;4.708;2023-02-04T11:12:34;103781.97;;;14.47;100.00
19831;BME280;10076;52.008;4.708;2023-02-04T11:15:01;103789.88;;;14.91;100.00
19831;BME280;10076;52.008;4.708;2023-02-04T11:17:33;103778.91;;;15.18;100.00
19831;BME280;10076;52.008;4.708;2023-02-04T11:19:59;103768.25;;;15.40;100.00
19831;BME280;10076;52.008;4.708;2023-02-04T11:22:54;103771.00;;;15.57;100.00
19831;BME280;10076;52.008;4.708;2023-02-04T11:25:33;103777.94;;;15.61;100.00
19831;BME280;10076;52.008;4.708;2023-02-04T11:27:59;103778.44;;;15.50;100.00
19831;BME280;10076;52.008;4.708;2023-02-04T11:30:30;103779.00;;;15.37;100.00
19831;BME280;10076;52.008;4.708;2023-02-04T11:33:01;103775.19;;;15.24;100.00
19831;BME280;10076;52.008;4.708;2023-02-04T11:35:28;103771.00;;;15.17;100.00
19831;BME280;10076;52.008;4.708;2023-02-04T11:37:54;103762.13;;;15.17;100.00
19831;BME280;10076;52.008;4.708;2023-02-04T11:40:26;103773.66;;;14.97;100.00
19831;BME280;10076;52.008;4.708;2023-02-04T11:42:58;103765.91;;;14.71;100.00
19831;BME280;10076;52.008;4.708;2023-02-04T11:45:27;103777.47;;;14.70;100.00
19831;BME280;10076;52.008;4.708;2023-02-04T11:47:55;103773.22;;;14.66;100.00
19831;BME280;10076;52.008;4.708;2023-02-04T11:50:25;103774.06;;;14.67;100.00
19831;BME280;10076;52.008;4.708;2023-02-04T11:52:53;103774.66;;;14.73;100.00
19831;BME280;10076;52.008;4.708;2023-02-04T11:55:19;103775.72;;;14.69;100.00
19831;BME280;10076;52.008;4.708;2023-02-04T11:57:44;103778.56;;;14.86;100.00
19831;BME280;10076;52.008;4.708;2023-02-04T12:00:17;103773.66;;;14.97;100.00
19831;BME280;10076;52.008;4.708;2023-02-04T12:02:46;103776.97;;;15.02;100.00
19831;BME280;10076;52.008;4.708;2023-02-04T12:05:17;103781.91;;;15.11;100.00
19831;BME280;10076;52.008;4.708;2023-02-04T12:07:44;103770.34;;;15.12;100.00
19831;BME280;10076;52.008;4.708;2023-02-04T12:12:44;103767.81;;;15.09;100.00
19831;BME280;10076;52.008;4.708;2023-02-04T12:15:15;103770.59;;;15.06;100.00
19831;BME280;10076;52.008;4.708;2023-02-04T12:17:44;103769.28;;;15.16;100.00
19831;BME280;10076;52.008;4.708;2023-02-04T12:20:12;103772.78;;;15.17;100.00
19831;BME280;10076;52.008;4.708;2023-02-04T12:22:37;103781.44;;;15.23;100.00
19831;BME280;10076;52.008;4.708;2023-02-04T12:25:03;103783.16;;;15.24;100.00
19831;BME280;10076;52.008;4.708;2023-02-04T12:27:28;103782.25;;;15.25;100.00
19831;BME280;10076;52.008;4.708;2023-02-04T12:29:54;103780.09;;;15.33;100.00
19831;BME280;10076;52.008;4.708;2023-02-04T12:32:19;103787.34;;;15.29;100.00
19831;BME280;10076;52.008;4.708;2023-02-04T12:34:45;103779.16;;;15.34;100.00
19831;BME280;10076;52.008;4.708;2023-02-04T12:37:10;103780.09;;;15.33;100.00
19831;BME280;10076;52.008;4.708;2023-02-04T12:39:35;103781.63;;;15.38;100.00
19831;BME280;10076;52.008;4.708;2023-02-04T12:42:00;103776.69;;;15.29;100.00